createdAt,value
2019-05-20T00:01:12.436Z,84.48
2019-05-20T00:03:40.912Z,84.05
2019-05-20T00:06:09.897Z,84.78
2019-05-20T00:08:38.777Z,85.29
2019-05-20T00:11:07.511Z,85.16
2019-05-20T00:13:36.003Z,85.00
2019-05-20T00:16:04.527Z,84.94
2019-05-20T00:18:33.084Z,85.99
2019-05-20T00:21:01.563Z,85.65
2019-05-20T00:23:30.005Z,86.07
2019-05-20T00:25:58.487Z,86.30
2019-05-20T00:28:26.928Z,86.06
2019-05-20T00:30:55.416Z,85.65
2019-05-20T00:33:23.851Z,85.67
2019-05-20T00:35:52.283Z,86.24
2019-05-20T00:38:20.793Z,86.28
2019-05-20T00:40:49.397Z,86.19
2019-05-20T00:43:17.841Z,85.79
2019-05-20T00:45:46.307Z,86.08
2019-05-20T00:48:14.772Z,86.16
2019-05-20T00:50:43.205Z,85.95
2019-05-20T00:53:11.644Z,86.17
2019-05-20T00:55:40.536Z,87.11
2019-05-20T00:58:08.973Z,86.74
2019-05-20T01:00:37.999Z,86.75
2019-05-20T01:03:06.452Z,87.11
2019-05-20T01:05:34.915Z,86.73
2019-05-20T01:08:03.383Z,87.04
2019-05-20T01:10:31.842Z,87.36
2019-05-20T01:13:00.324Z,88.06
2019-05-20T01:15:28.767Z,87.85
2019-05-20T01:17:57.209Z,88.02
2019-05-20T01:20:25.681Z,88.52
2019-05-20T01:22:54.126Z,88.59
2019-05-20T01:25:22.578Z,89.20
2019-05-20T01:27:51.065Z,89.44
2019-05-20T01:30:19.931Z,89.64
2019-05-20T01:32:48.418Z,89.84
2019-05-20T01:35:16.967Z,89.93
2019-05-20T01:37:45.405Z,90.25
2019-05-20T01:40:14.404Z,89.99
2019-05-20T01:42:42.843Z,89.19
2019-05-20T01:45:12.919Z,89.26
2019-05-20T01:47:41.373Z,89.42
2019-05-20T01:50:10.072Z,89.28
2019-05-20T01:52:38.557Z,89.71
2019-05-20T01:55:07.763Z,89.37
2019-05-20T01:57:36.249Z,88.48
2019-05-20T02:00:08.063Z,88.85
2019-05-20T02:02:36.525Z,88.24
2019-05-20T02:05:06.620Z,88.48
2019-05-20T02:07:35.131Z,88.19
2019-05-20T02:10:04.741Z,88.00
2019-05-20T02:12:33.191Z,87.60
2019-05-20T02:15:09.552Z,88.45
2019-05-20T02:17:37.986Z,88.51
2019-05-20T02:20:08.415Z,88.42
2019-05-20T02:22:36.846Z,88.65
2019-05-20T02:25:06.056Z,88.23
2019-05-20T02:27:34.499Z,88.87
2019-05-20T02:30:02.982Z,88.92
2019-05-20T02:32:31.424Z,89.16
2019-05-20T02:34:59.925Z,89.37
2019-05-20T02:37:28.415Z,89.66
2019-05-20T02:39:56.862Z,90.10
2019-05-20T02:42:25.317Z,90.10
2019-05-20T02:44:53.761Z,90.07
2019-05-20T02:47:22.221Z,89.83
2019-05-20T02:49:50.679Z,89.96
2019-05-20T02:52:19.151Z,89.66
2019-05-20T02:54:47.624Z,89.40
2019-05-20T02:57:16.101Z,89.67
2019-05-20T02:59:44.533Z,90.11
2019-05-20T03:02:13.013Z,90.09
2019-05-20T03:04:41.470Z,90.34
2019-05-20T03:07:09.900Z,90.60
2019-05-20T03:09:38.363Z,91.02
2019-05-20T03:12:06.836Z,90.82
2019-05-20T03:14:35.297Z,91.90
2019-05-20T03:17:03.756Z,91.35
2019-05-20T03:19:32.240Z,91.59
2019-05-20T03:22:00.692Z,91.06
2019-05-20T03:24:29.143Z,91.05
2019-05-20T03:26:57.601Z,90.51
2019-05-20T03:29:26.140Z,90.48
2019-05-20T03:31:54.603Z,90.66
2019-05-20T03:34:43.682Z,90.59
2019-05-20T03:36:53.237Z,90.35
2019-05-20T03:39:21.689Z,90.11
2019-05-20T03:41:50.160Z,91.20
2019-05-20T03:44:18.627Z,91.26
2019-05-20T03:46:47.069Z,90.74
2019-05-20T03:49:16.321Z,90.22
2019-05-20T03:51:44.831Z,90.38
2019-05-20T03:54:13.306Z,90.22
2019-05-20T03:56:41.771Z,90.15
2019-05-20T03:59:10.216Z,91.21
2019-05-20T04:01:38.667Z,89.90
2019-05-20T04:04:07.104Z,90.14
2019-05-20T04:06:35.586Z,90.40
2019-05-20T04:09:05.971Z,89.77
2019-05-20T04:11:34.447Z,88.74
2019-05-20T04:14:02.955Z,88.57
2019-05-20T04:16:31.393Z,89.36
2019-05-20T04:19:03.822Z,89.06
2019-05-20T04:21:32.460Z,88.35
2019-05-20T04:24:02.026Z,88.78
2019-05-20T04:26:30.743Z,88.87
2019-05-20T04:28:59.214Z,87.90
2019-05-20T04:31:27.746Z,87.87
2019-05-20T04:33:56.179Z,87.59
2019-05-20T04:36:24.643Z,86.43
2019-05-20T04:38:54.776Z,86.25
2019-05-20T04:41:23.216Z,85.82
2019-05-20T04:43:51.683Z,85.93
2019-05-20T04:46:20.156Z,85.41
2019-05-20T04:48:48.587Z,86.25
2019-05-20T04:51:17.084Z,85.72
2019-05-20T04:53:45.555Z,85.54
2019-05-20T04:56:14.002Z,85.00
2019-05-20T04:58:42.471Z,85.07
2019-05-20T05:01:10.956Z,85.71
2019-05-20T05:03:39.419Z,86.30
2019-05-20T05:06:07.870Z,86.47
2019-05-20T05:08:36.311Z,85.65
2019-05-20T05:11:04.783Z,84.96
2019-05-20T05:13:33.256Z,84.89
2019-05-20T05:16:01.771Z,85.27
2019-05-20T05:18:30.325Z,85.32
2019-05-20T05:20:58.797Z,84.63
2019-05-20T05:23:27.332Z,84.12
2019-05-20T05:25:55.848Z,83.65
2019-05-20T05:28:24.522Z,82.65
2019-05-20T05:30:53.487Z,82.27
2019-05-20T05:33:21.992Z,82.04
2019-05-20T05:35:53.561Z,80.96
2019-05-20T05:38:21.254Z,82.01
2019-05-20T05:40:49.750Z,80.58
2019-05-20T05:43:18.181Z,80.98
2019-05-20T05:45:46.688Z,81.28
2019-05-20T05:48:16.719Z,81.55
2019-05-20T05:50:45.204Z,80.00
2019-05-20T05:53:13.665Z,78.93
2019-05-20T05:55:42.125Z,79.17
2019-05-20T05:58:10.612Z,79.29
2019-05-20T06:00:39.047Z,78.90
2019-05-20T06:03:07.532Z,78.41
2019-05-20T06:05:35.986Z,78.32
2019-05-20T06:08:04.465Z,78.61
2019-05-20T06:10:35.773Z,78.50
2019-05-20T06:13:03.327Z,77.36
2019-05-20T06:15:31.710Z,77.26
2019-05-20T06:18:00.186Z,77.33
2019-05-20T06:20:28.651Z,76.26
2019-05-20T06:22:57.135Z,76.30
2019-05-20T06:25:25.574Z,75.04
2019-05-20T06:27:54.040Z,75.21
2019-05-20T06:30:25.582Z,75.88
2019-05-20T06:32:54.053Z,75.63
2019-05-20T06:35:22.537Z,74.93
2019-05-20T06:37:52.899Z,74.90
2019-05-20T06:40:22.342Z,75.11
2019-05-20T06:42:50.792Z,74.89
2019-05-20T06:45:19.326Z,74.04
2019-05-20T06:47:47.785Z,74.84
2019-05-20T06:50:16.471Z,74.60
2019-05-20T06:52:44.916Z,73.83
2019-05-20T06:55:13.628Z,73.25
2019-05-20T06:57:42.066Z,72.92
2019-05-20T07:00:12.383Z,72.40
2019-05-20T07:02:40.872Z,72.64
2019-05-20T07:05:09.937Z,72.68
2019-05-20T07:07:38.391Z,71.93
2019-05-20T07:10:08.020Z,71.13
2019-05-20T07:12:41.105Z,71.27
2019-05-20T07:15:09.208Z,71.11
2019-05-20T07:17:37.696Z,70.25
2019-05-20T07:20:06.858Z,69.40
2019-05-20T07:22:53.943Z,69.09
2019-05-20T07:25:08.281Z,68.54
2019-05-20T07:27:36.724Z,67.94
2019-05-20T07:30:06.799Z,68.85
2019-05-20T07:32:35.260Z,67.93
2019-05-20T07:35:04.975Z,68.43
2019-05-20T07:37:33.476Z,67.95
2019-05-20T07:40:01.992Z,67.44
2019-05-20T07:42:30.562Z,66.76
2019-05-20T07:44:59.114Z,66.23
2019-05-20T07:47:27.566Z,66.46
2019-05-20T07:49:56.369Z,64.83
2019-05-20T07:52:26.141Z,64.62
2019-05-20T07:54:56.143Z,63.97
2019-05-20T07:57:27.667Z,64.29
2019-05-20T07:59:56.656Z,63.67
2019-05-20T08:02:25.976Z,63.12
2019-05-20T08:04:54.445Z,63.15
2019-05-20T08:07:30.039Z,63.43
2019-05-20T08:09:53.146Z,62.84
2019-05-20T08:12:21.597Z,62.51
2019-05-20T08:14:50.116Z,61.93
2019-05-20T08:17:18.579Z,61.53
2019-05-20T08:19:47.030Z,60.60
2019-05-20T08:22:15.471Z,60.61
2019-05-20T08:24:43.970Z,60.30
2019-05-20T08:27:12.430Z,59.90
2019-05-20T08:29:40.898Z,59.70
2019-05-20T08:32:09.352Z,59.96
2019-05-20T08:34:39.068Z,59.33
2019-05-20T08:37:08.201Z,58.46
2019-05-20T08:39:36.708Z,57.83
2019-05-20T08:42:05.201Z,55.63
2019-05-20T08:44:33.772Z,54.28
2019-05-20T08:47:02.250Z,53.93
2019-05-20T08:49:30.850Z,52.86
2019-05-20T08:51:59.346Z,52.26
2019-05-20T08:54:27.813Z,52.05
2019-05-20T08:56:56.309Z,53.55
2019-05-20T08:59:24.786Z,53.33
2019-05-20T09:01:53.263Z,53.16
2019-05-20T09:04:21.701Z,54.08
2019-05-20T09:06:50.164Z,51.68
2019-05-20T09:09:18.698Z,51.30
2019-05-20T09:11:48.080Z,51.63
2019-05-20T09:14:16.696Z,51.26
2019-05-20T09:16:45.169Z,50.62
2019-05-20T09:19:13.663Z,50.93
2019-05-20T09:21:42.175Z,50.87
2019-05-20T09:24:10.608Z,50.10
2019-05-20T09:26:39.088Z,50.27
2019-05-20T09:29:11.286Z,50.11
2019-05-20T09:31:38.156Z,49.88
2019-05-20T09:34:06.620Z,48.64
2019-05-20T09:36:35.173Z,49.63
2019-05-20T09:39:05.127Z,49.66
2019-05-20T09:41:33.617Z,49.62
2019-05-20T09:44:02.065Z,49.25
2019-05-20T09:46:30.588Z,49.81
2019-05-20T09:48:59.035Z,49.72
2019-05-20T09:51:27.514Z,49.39
2019-05-20T09:53:55.986Z,49.84
2019-05-20T09:56:26.157Z,48.63
2019-05-20T09:58:54.572Z,48.57
2019-05-20T10:01:23.040Z,48.30
2019-05-20T10:03:51.479Z,48.72
2019-05-20T10:06:20.805Z,48.85
2019-05-20T10:08:49.256Z,48.63
2019-05-20T10:11:17.694Z,48.94
2019-05-20T10:13:46.153Z,48.90
2019-05-20T10:16:14.619Z,49.42
2019-05-20T10:18:43.050Z,49.03
2019-05-20T10:21:11.513Z,47.92
2019-05-20T10:23:39.997Z,47.13
2019-05-20T10:26:08.471Z,47.78
2019-05-20T10:28:42.006Z,47.41
2019-05-20T10:31:07.106Z,47.57
2019-05-20T10:33:37.090Z,47.80
2019-05-20T10:36:05.768Z,47.47
2019-05-20T10:38:34.233Z,47.31
2019-05-20T10:41:02.688Z,47.09
2019-05-20T10:43:31.147Z,44.86
2019-05-20T10:45:59.632Z,44.27
2019-05-20T10:48:28.067Z,45.12
2019-05-20T10:50:56.540Z,45.06
2019-05-20T10:53:28.281Z,45.04
2019-05-20T10:55:55.269Z,44.94
2019-05-20T10:58:23.723Z,45.39
2019-05-20T11:01:02.298Z,45.03
2019-05-20T11:03:22.439Z,44.98
2019-05-20T11:05:50.939Z,44.58
2019-05-20T11:08:19.459Z,43.86
2019-05-20T11:10:47.910Z,43.66
2019-05-20T11:13:16.355Z,44.52
2019-05-20T11:15:44.825Z,44.80
2019-05-20T11:18:13.260Z,44.83
2019-05-20T11:20:41.723Z,45.29
2019-05-20T11:23:10.159Z,45.95
2019-05-20T11:25:38.650Z,46.16
2019-05-20T11:28:07.057Z,45.44
2019-05-20T11:30:35.518Z,45.84
2019-05-20T11:33:04.029Z,45.28
2019-05-20T11:35:32.459Z,46.13
2019-05-20T11:38:00.916Z,46.42
2019-05-20T11:40:29.373Z,46.42
2019-05-20T11:42:57.824Z,46.63
2019-05-20T11:45:26.253Z,46.37
2019-05-20T11:47:54.733Z,45.35
2019-05-20T11:50:23.320Z,45.44
2019-05-20T11:52:51.750Z,45.99
2019-05-20T11:55:20.212Z,46.19
2019-05-20T11:57:48.661Z,47.00
2019-05-20T12:00:17.373Z,47.05
2019-05-20T12:02:45.832Z,47.40
2019-05-20T12:05:14.445Z,46.49
2019-05-20T12:07:42.887Z,46.36
2019-05-20T12:10:11.900Z,46.72
2019-05-20T12:12:40.341Z,48.01
2019-05-20T12:15:09.613Z,47.78
2019-05-20T12:17:38.063Z,46.95
2019-05-20T12:20:10.540Z,47.40
2019-05-20T12:22:38.582Z,47.37
2019-05-20T12:25:08.094Z,47.02
2019-05-20T12:27:36.580Z,46.40
2019-05-20T12:30:07.266Z,46.72
2019-05-20T12:32:35.702Z,47.37
2019-05-20T12:35:06.754Z,46.87
2019-05-20T12:37:35.221Z,47.41
2019-05-20T12:40:07.493Z,47.32
2019-05-20T12:42:35.353Z,46.68
2019-05-20T12:45:05.577Z,47.74
2019-05-20T12:47:34.019Z,48.18
2019-05-20T12:50:02.490Z,47.98
2019-05-20T12:52:30.910Z,47.81
2019-05-20T12:55:08.111Z,48.24
2019-05-20T12:57:29.614Z,47.72
2019-05-20T12:59:58.073Z,48.82
2019-05-20T13:02:26.546Z,48.16
2019-05-20T13:04:55.020Z,48.63
2019-05-20T13:07:25.042Z,49.04
2019-05-20T13:09:53.501Z,50.25
2019-05-20T13:12:21.933Z,49.45
2019-05-20T13:14:50.411Z,50.55
2019-05-20T13:17:18.854Z,51.57
2019-05-20T13:19:47.331Z,51.81
2019-05-20T13:22:15.833Z,51.33
2019-05-20T13:24:44.349Z,51.69
2019-05-20T13:27:12.810Z,52.03
2019-05-20T13:29:41.288Z,51.24
2019-05-20T13:32:09.760Z,50.68
2019-05-20T13:34:38.233Z,51.24
2019-05-20T13:37:06.670Z,51.65
2019-05-20T13:39:36.764Z,53.13
2019-05-20T13:42:05.193Z,53.07
2019-05-20T13:44:33.672Z,53.44
2019-05-20T13:47:02.199Z,54.31
2019-05-20T13:49:30.666Z,54.18
2019-05-20T13:51:59.126Z,54.93
2019-05-20T13:54:27.610Z,54.99
2019-05-20T13:56:56.058Z,54.55
2019-05-20T13:59:25.520Z,54.58
2019-05-20T14:01:53.962Z,55.25
2019-05-20T14:04:22.480Z,55.35
2019-05-20T14:06:50.913Z,55.72
2019-05-20T14:09:19.397Z,56.04
2019-05-20T14:11:47.864Z,58.05
2019-05-20T14:14:16.319Z,59.31
2019-05-20T14:16:44.906Z,61.28
2019-05-20T14:19:13.381Z,61.88
2019-05-20T14:21:41.864Z,62.74
2019-05-20T14:24:10.312Z,63.56
2019-05-20T14:26:38.821Z,64.47
2019-05-20T14:29:07.267Z,65.60
2019-05-20T14:31:35.696Z,66.53
2019-05-20T14:34:04.241Z,70.45
2019-05-20T14:36:40.516Z,70.55
2019-05-20T14:39:03.855Z,72.45
2019-05-20T14:41:32.313Z,74.26
2019-05-20T14:44:00.779Z,75.19
2019-05-20T14:46:29.274Z,73.96
2019-05-20T14:49:02.256Z,77.21
2019-05-20T14:51:28.016Z,76.48
2019-05-20T14:53:56.462Z,78.66
2019-05-20T14:56:24.945Z,82.11
2019-05-20T14:58:54.488Z,82.85
2019-05-20T15:01:23.602Z,83.28
2019-05-20T15:03:52.051Z,83.58
2019-05-20T15:06:20.524Z,83.89
2019-05-20T15:08:49.025Z,83.80
2019-05-20T15:11:17.512Z,83.71
2019-05-20T15:13:45.959Z,86.79
2019-05-20T15:16:14.429Z,85.93
2019-05-20T15:18:42.883Z,87.41
2019-05-20T15:21:11.338Z,88.90
2019-05-20T15:23:39.802Z,89.18
2019-05-20T15:26:08.269Z,93.64
2019-05-20T15:28:36.767Z,87.62
2019-05-20T15:31:05.560Z,85.29
2019-05-20T15:33:33.981Z,89.94
2019-05-20T15:36:02.492Z,89.16
2019-05-20T15:38:30.936Z,93.32
2019-05-20T15:40:59.378Z,97.71
2019-05-20T15:43:27.846Z,100.00
2019-05-20T15:45:56.314Z,100.00
2019-05-20T15:48:24.783Z,96.07
2019-05-20T15:50:53.247Z,96.16
2019-05-20T15:53:21.717Z,99.65
2019-05-20T15:55:50.181Z,98.78
2019-05-20T15:58:18.615Z,98.63
2019-05-20T16:00:47.094Z,99.71
2019-05-20T16:03:15.544Z,97.57
2019-05-20T16:05:43.997Z,97.21
2019-05-20T16:08:12.495Z,97.74
2019-05-20T16:10:40.956Z,97.12
2019-05-20T16:13:09.404Z,97.93
2019-05-20T16:15:37.867Z,98.26
2019-05-20T16:18:06.342Z,98.28
2019-05-20T16:20:34.803Z,97.89
2019-05-20T16:23:03.285Z,97.15
2019-05-20T16:25:31.732Z,96.69
2019-05-20T16:28:00.166Z,95.34
2019-05-20T16:30:28.633Z,94.08
2019-05-20T16:32:57.091Z,93.85
2019-05-20T16:35:25.565Z,90.74
2019-05-20T16:37:54.020Z,91.76
2019-05-20T16:40:22.632Z,90.97
2019-05-20T16:42:51.075Z,87.00
2019-05-20T16:45:19.657Z,85.45
2019-05-20T16:47:48.122Z,87.72
2019-05-20T16:50:18.401Z,89.26
2019-05-20T16:52:46.835Z,90.09
2019-05-20T16:55:15.689Z,90.16
2019-05-20T16:57:44.161Z,90.21
2019-05-20T17:00:29.862Z,90.00
2019-05-20T17:02:44.414Z,90.86
2019-05-20T17:05:13.090Z,91.69
2019-05-20T17:07:41.556Z,92.11
2019-05-20T17:10:10.473Z,91.96
2019-05-20T17:12:38.978Z,91.93
2019-05-20T17:15:07.889Z,91.82
2019-05-20T17:17:36.374Z,92.76
2019-05-20T17:20:06.295Z,93.95
2019-05-20T17:22:34.744Z,94.00
2019-05-20T17:25:03.320Z,94.37
2019-05-20T17:27:31.775Z,94.16
2019-05-20T17:30:00.247Z,94.16
2019-05-20T17:32:28.751Z,94.87
2019-05-20T17:34:57.205Z,95.33
2019-05-20T17:37:25.711Z,94.90
2019-05-20T17:39:54.172Z,93.82
2019-05-20T17:42:22.698Z,92.66
2019-05-20T17:44:51.124Z,92.44
2019-05-20T17:47:19.585Z,92.19
2019-05-20T17:49:48.039Z,92.10
2019-05-20T17:52:16.512Z,91.63
2019-05-20T17:54:44.989Z,91.54
2019-05-20T17:57:13.447Z,91.36
2019-05-20T17:59:41.893Z,91.92
2019-05-20T18:02:11.756Z,91.51
2019-05-20T18:04:40.476Z,92.65
2019-05-20T18:07:08.930Z,93.21
2019-05-20T18:09:39.018Z,93.67
2019-05-20T18:12:07.474Z,93.99
2019-05-20T18:14:35.983Z,94.95
2019-05-20T18:17:04.484Z,97.12
2019-05-20T18:19:32.966Z,100.00
2019-05-20T18:22:01.447Z,100.00
2019-05-20T18:24:29.891Z,100.00
2019-05-20T18:26:58.378Z,100.00
2019-05-20T18:29:26.840Z,100.00
2019-05-20T18:31:55.302Z,100.00
2019-05-20T18:34:23.793Z,100.00
2019-05-20T18:36:52.282Z,100.00
2019-05-20T18:39:20.738Z,100.00
2019-05-20T18:41:49.221Z,100.00
2019-05-20T18:44:17.738Z,100.00
2019-05-20T18:46:46.206Z,100.00
2019-05-20T18:49:14.695Z,100.00
2019-05-20T18:51:43.169Z,100.00
2019-05-20T18:54:11.624Z,100.00
2019-05-20T18:56:40.282Z,100.00
2019-05-20T18:59:08.724Z,100.00
2019-05-20T19:01:50.634Z,100.00
2019-05-20T19:04:07.379Z,100.00
2019-05-20T19:06:35.846Z,100.00
2019-05-20T19:09:05.590Z,100.00
2019-05-20T19:11:34.020Z,100.00
2019-05-20T19:14:02.507Z,100.00
2019-05-20T19:16:30.957Z,100.00
2019-05-20T19:18:59.446Z,100.00
2019-05-20T19:21:27.946Z,100.00
2019-05-20T19:23:56.388Z,100.00
2019-05-20T19:26:25.619Z,100.00
2019-05-20T19:28:54.367Z,100.00
2019-05-20T19:31:22.860Z,100.00
2019-05-20T19:33:51.344Z,100.00
2019-05-20T19:36:19.804Z,100.00
2019-05-20T19:38:48.308Z,100.00
2019-05-20T19:41:16.775Z,100.00
2019-05-20T19:43:45.224Z,100.00
2019-05-20T19:46:13.696Z,100.00
2019-05-20T19:48:42.143Z,100.00
2019-05-20T19:51:10.592Z,100.00
2019-05-20T19:53:39.049Z,100.00
2019-05-20T19:56:07.529Z,100.00
2019-05-20T19:58:37.651Z,100.00
2019-05-20T20:01:06.134Z,100.00
2019-05-20T20:03:34.577Z,100.00
2019-05-20T20:06:03.062Z,100.00
2019-05-20T20:08:31.540Z,100.00
2019-05-20T20:11:00.016Z,100.00
2019-05-20T20:13:28.452Z,100.00
2019-05-20T20:15:56.922Z,100.00
2019-05-20T20:18:25.396Z,100.00
2019-05-20T20:20:53.890Z,100.00
2019-05-20T20:23:22.337Z,100.00
2019-05-20T20:25:50.814Z,100.00
2019-05-20T20:28:19.287Z,100.00
2019-05-20T20:30:47.785Z,100.00
2019-05-20T20:33:16.250Z,100.00
2019-05-20T20:35:44.687Z,100.00
2019-05-20T20:38:13.151Z,100.00
2019-05-20T20:40:41.650Z,100.00
2019-05-20T20:43:10.112Z,100.00
2019-05-20T20:45:38.558Z,100.00
2019-05-20T20:48:07.022Z,100.00
2019-05-20T20:50:35.586Z,100.00
2019-05-20T20:53:04.105Z,100.00
2019-05-20T20:55:32.575Z,100.00
2019-05-20T20:58:01.515Z,100.00
2019-05-20T21:00:29.980Z,100.00
2019-05-20T21:02:58.418Z,100.00
2019-05-20T21:05:26.886Z,100.00
2019-05-20T21:07:55.346Z,100.00
2019-05-20T21:10:25.244Z,100.00
2019-05-20T21:12:53.751Z,100.00
2019-05-20T21:15:22.182Z,100.00
2019-05-20T21:17:50.676Z,100.00
2019-05-20T21:20:19.126Z,100.00
2019-05-20T21:22:47.621Z,100.00
2019-05-20T21:25:16.063Z,100.00
2019-05-20T21:27:44.508Z,100.00
2019-05-20T21:30:13.338Z,100.00
2019-05-20T21:32:41.793Z,100.00
2019-05-20T21:35:10.343Z,100.00
2019-05-20T21:37:39.070Z,100.00
2019-05-20T21:40:08.206Z,100.00
2019-05-20T21:42:36.626Z,100.00
2019-05-20T21:45:06.831Z,100.00
2019-05-20T21:47:35.280Z,100.00
2019-05-20T21:50:03.834Z,100.00
2019-05-20T21:52:32.281Z,100.00
2019-05-20T21:55:00.742Z,100.00
2019-05-20T21:57:29.215Z,100.00
2019-05-20T21:59:57.705Z,100.00
2019-05-20T22:02:26.714Z,100.00
2019-05-20T22:04:55.404Z,100.00
2019-05-20T22:07:23.882Z,100.00
2019-05-20T22:09:53.063Z,100.00
2019-05-20T22:12:21.472Z,100.00
2019-05-20T22:14:49.910Z,100.00
2019-05-20T22:17:18.386Z,100.00
2019-05-20T22:19:46.851Z,100.00
2019-05-20T22:22:19.394Z,100.00
2019-05-20T22:24:48.410Z,100.00
2019-05-20T22:27:16.857Z,100.00
2019-05-20T22:29:45.301Z,100.00
2019-05-20T22:32:13.764Z,100.00
2019-05-20T22:34:53.181Z,100.00
2019-05-20T22:37:12.469Z,100.00
2019-05-20T22:39:40.904Z,100.00
2019-05-20T22:42:09.381Z,100.00
2019-05-20T22:44:37.828Z,100.00
2019-05-20T22:47:06.318Z,100.00
2019-05-20T22:49:34.790Z,100.00
2019-05-20T22:52:03.256Z,100.00
2019-05-20T22:54:31.723Z,100.00
2019-05-20T22:57:00.183Z,100.00
2019-05-20T22:59:28.654Z,100.00
2019-05-20T23:01:57.092Z,100.00
2019-05-20T23:04:25.557Z,100.00
2019-05-20T23:06:54.007Z,100.00
2019-05-20T23:09:24.097Z,100.00
2019-05-20T23:11:52.565Z,100.00
2019-05-20T23:14:21.024Z,100.00
2019-05-20T23:16:49.488Z,100.00
2019-05-20T23:19:17.962Z,100.00
2019-05-20T23:21:46.401Z,100.00
2019-05-20T23:24:14.867Z,100.00
2019-05-20T23:26:43.347Z,100.00
2019-05-20T23:29:11.793Z,100.00
2019-05-20T23:31:40.263Z,100.00
2019-05-20T23:34:12.699Z,100.00
2019-05-20T23:36:38.919Z,100.00
2019-05-20T23:39:07.654Z,100.00
2019-05-20T23:41:36.110Z,100.00
2019-05-20T23:44:04.594Z,100.00
2019-05-20T23:46:33.048Z,100.00
2019-05-20T23:49:01.515Z,100.00
2019-05-20T23:51:29.991Z,100.00
2019-05-20T23:53:58.434Z,100.00
2019-05-20T23:56:26.890Z,100.00
2019-05-20T23:58:55.349Z,100.00
